createdAt,value
2022-10-23T00:00:48.845Z,14.78
2022-10-23T00:05:49.997Z,14.60
2022-10-23T00:10:51.189Z,14.46
2022-10-23T00:20:53.401Z,14.61
2022-10-23T00:25:55.531Z,14.47
2022-10-23T00:30:54.776Z,14.42
2022-10-23T00:35:59.833Z,14.42
2022-10-23T00:40:56.977Z,14.25
2022-10-23T00:45:58.048Z,14.12
2022-10-23T00:50:59.253Z,13.96
2022-10-23T00:56:00.407Z,13.87
2022-10-23T01:01:01.637Z,13.65
2022-10-23T01:06:02.858Z,13.44
2022-10-23T01:11:03.965Z,13.47
2022-10-23T01:16:06.057Z,13.30
2022-10-23T01:21:05.147Z,12.85
2022-10-23T01:26:07.233Z,12.78
2022-10-23T01:31:06.331Z,13.09
2022-10-23T01:36:07.475Z,13.33
2022-10-23T01:41:10.589Z,13.37
2022-10-23T01:46:09.789Z,13.41
2022-10-23T01:51:12.046Z,13.24
2022-10-23T01:56:11.137Z,12.62
2022-10-23T02:01:12.321Z,12.12
2022-10-23T02:06:13.686Z,11.86
2022-10-23T02:11:14.847Z,11.50
2022-10-23T02:16:16.019Z,11.19
2022-10-23T02:21:17.107Z,11.16
2022-10-23T02:26:18.196Z,11.16
2022-10-23T02:31:19.392Z,11.10
2022-10-23T02:36:20.533Z,11.01
2022-10-23T02:41:22.656Z,11.06
2022-10-23T02:46:22.781Z,10.99
2022-10-23T02:51:22.898Z,10.91
2022-10-23T02:56:21.999Z,10.98
2022-10-23T03:01:24.470Z,10.89
2022-10-23T03:06:23.648Z,10.84
2022-10-23T03:11:24.764Z,10.78
2022-10-23T03:16:26.889Z,10.80
2022-10-23T03:21:27.075Z,10.68
2022-10-23T03:26:26.236Z,10.65
2022-10-23T03:31:27.340Z,10.55
2022-10-23T03:36:28.458Z,10.44
2022-10-23T03:41:29.570Z,10.44
2022-10-23T03:46:30.775Z,10.37
2022-10-23T03:51:31.908Z,10.36
2022-10-23T03:56:33.006Z,10.26
2022-10-23T04:01:34.406Z,10.21
2022-10-23T04:06:36.713Z,10.01
2022-10-23T04:11:35.823Z,10.00
2022-10-23T04:16:37.147Z,10.06
2022-10-23T04:21:39.233Z,10.07
2022-10-23T04:26:38.459Z,9.97
2022-10-23T04:31:39.691Z,9.85
2022-10-23T04:36:40.965Z,9.67
2022-10-23T04:41:42.139Z,9.60
2022-10-23T04:46:44.222Z,9.56
2022-10-23T04:51:43.373Z,9.50
2022-10-23T04:56:44.469Z,9.52
2022-10-23T05:01:47.666Z,9.57
2022-10-23T05:06:46.786Z,9.48
2022-10-23T05:11:52.797Z,9.42
2022-10-23T05:16:48.005Z,9.50
2022-10-23T05:21:49.152Z,9.46
2022-10-23T05:26:51.247Z,9.38
2022-10-23T05:31:51.335Z,9.15
2022-10-23T05:36:50.515Z,9.24
2022-10-23T05:41:51.897Z,9.20
2022-10-23T05:46:53.984Z,9.32
2022-10-23T05:51:53.179Z,9.35
2022-10-23T05:56:55.311Z,9.45
2022-10-23T06:01:54.670Z,9.60
2022-10-23T06:06:56.875Z,9.50
2022-10-23T06:11:56.047Z,9.61
2022-10-23T06:16:57.222Z,9.68
2022-10-23T06:21:58.382Z,9.70
2022-10-23T06:27:00.483Z,9.89
2022-10-23T06:31:59.629Z,9.96
2022-10-23T06:37:01.761Z,10.09
2022-10-23T06:42:00.876Z,10.42
2022-10-23T06:47:03.008Z,10.56
2022-10-23T06:52:02.320Z,10.84
2022-10-23T06:57:03.441Z,11.17
2022-10-23T07:02:03.732Z,11.46
2022-10-23T07:07:04.844Z,11.82
2022-10-23T07:12:05.938Z,12.05
2022-10-23T07:17:07.101Z,12.29
2022-10-23T07:22:10.763Z,12.66
2022-10-23T07:27:08.236Z,12.99
2022-10-23T07:32:08.372Z,13.33
2022-10-23T07:37:10.457Z,13.62
2022-10-23T07:42:09.551Z,13.87
2022-10-23T07:47:10.816Z,14.19
2022-10-23T07:52:11.938Z,14.35
2022-10-23T07:57:13.187Z,14.10
2022-10-23T08:02:14.382Z,13.81
2022-10-23T08:07:15.715Z,13.83
2022-10-23T08:12:18.815Z,14.04
2022-10-23T08:17:18.925Z,13.92
2022-10-23T08:22:18.086Z,13.99
2022-10-23T08:27:20.176Z,13.96
2022-10-23T08:32:19.367Z,13.98
2022-10-23T08:37:21.465Z,13.99
2022-10-23T08:42:21.752Z,14.74
2022-10-23T08:47:20.922Z,14.84
2022-10-23T08:52:23.056Z,15.52
2022-10-23T08:57:22.281Z,15.70
2022-10-23T09:02:23.460Z,15.70
2022-10-23T09:07:24.755Z,15.61
2022-10-23T09:12:25.857Z,15.86
2022-10-23T09:17:27.087Z,16.07
2022-10-23T09:22:28.341Z,16.74
2022-10-23T09:27:29.556Z,16.88
2022-10-23T09:32:30.776Z,17.41
2022-10-23T09:37:31.986Z,18.39
2022-10-23T09:42:38.338Z,19.40
2022-10-23T09:47:33.553Z,19.50
2022-10-23T09:52:34.705Z,18.79
2022-10-23T09:57:35.871Z,18.95
2022-10-23T10:02:37.004Z,19.20
2022-10-23T10:07:38.186Z,19.48
2022-10-23T10:12:39.261Z,19.93
2022-10-23T10:17:40.439Z,19.53
2022-10-23T10:22:42.680Z,19.87
2022-10-23T10:27:42.046Z,20.58
2022-10-23T10:32:42.335Z,19.90
2022-10-23T10:37:43.922Z,20.35
2022-10-23T10:42:41.321Z,19.80
2022-10-23T10:47:42.767Z,19.84
2022-10-23T10:52:45.408Z,19.55
2022-10-23T10:57:43.494Z,19.70
2022-10-23T11:02:42.947Z,19.15
2022-10-23T11:07:45.465Z,19.42
2022-10-23T11:12:45.770Z,19.53
2022-10-23T11:17:45.369Z,19.73
2022-10-23T11:22:45.079Z,20.66
2022-10-23T11:27:44.845Z,21.51
2022-10-23T11:32:45.226Z,22.25
2022-10-23T11:37:44.540Z,23.82
2022-10-23T11:42:44.332Z,24.44
2022-10-23T11:47:43.731Z,25.09
2022-10-23T11:52:50.809Z,25.22
2022-10-23T11:57:45.007Z,25.49
2022-10-23T12:02:46.695Z,25.68
2022-10-23T12:07:47.251Z,25.91
2022-10-23T12:12:46.583Z,26.08
2022-10-23T12:17:48.692Z,26.20
2022-10-23T12:22:48.792Z,26.01
2022-10-23T12:27:48.085Z,25.99
2022-10-23T12:32:49.208Z,25.91
2022-10-23T12:37:50.302Z,25.91
2022-10-23T12:42:52.689Z,26.04
2022-10-23T12:47:52.138Z,25.80
2022-10-23T12:52:51.387Z,25.46
2022-10-23T12:57:52.563Z,25.37
2022-10-23T13:02:53.659Z,25.25
2022-10-23T13:07:54.908Z,25.16
2022-10-23T13:12:56.151Z,25.10
2022-10-23T13:17:58.423Z,24.94
2022-10-23T13:23:00.367Z,24.91
2022-10-23T13:27:58.036Z,24.80
2022-10-23T13:32:59.375Z,24.94
2022-10-23T13:37:59.615Z,25.05
2022-10-23T13:43:01.694Z,25.28
2022-10-23T13:48:00.878Z,25.37
2022-10-23T13:53:02.143Z,25.46
2022-10-23T13:58:04.316Z,25.39
2022-10-23T14:03:03.585Z,25.24
2022-10-23T14:08:04.987Z,25.17
2022-10-23T14:13:07.104Z,24.95
2022-10-23T14:18:08.372Z,24.94
2022-10-23T14:23:08.697Z,24.87
2022-10-23T14:28:08.095Z,25.00
2022-10-23T14:33:10.411Z,25.17
2022-10-23T14:38:09.843Z,24.85
2022-10-23T14:43:11.114Z,24.95
2022-10-23T14:48:14.447Z,24.98
2022-10-23T14:53:13.671Z,24.98
2022-10-23T14:58:14.952Z,24.76
2022-10-23T15:03:17.225Z,24.60
2022-10-23T15:08:16.644Z,24.75
2022-10-23T15:13:15.813Z,24.80
2022-10-23T15:18:16.953Z,24.79
2022-10-23T15:23:18.108Z,24.82
2022-10-23T15:28:19.298Z,24.95
2022-10-23T15:33:21.541Z,24.75
2022-10-23T15:38:21.762Z,24.73
2022-10-23T15:43:21.019Z,24.49
2022-10-23T15:48:22.375Z,24.64
2022-10-23T15:53:23.630Z,24.54
2022-10-23T15:58:24.819Z,22.64
2022-10-23T16:03:27.120Z,19.61
2022-10-23T16:08:27.447Z,18.50
2022-10-23T16:13:27.835Z,19.39
2022-10-23T16:18:27.067Z,18.94
2022-10-23T16:23:28.316Z,18.59
2022-10-23T16:28:29.508Z,17.95
2022-10-23T16:33:30.863Z,17.92
2022-10-23T16:38:32.271Z,17.79
2022-10-23T16:43:33.728Z,17.67
2022-10-23T16:48:33.043Z,17.57
2022-10-23T16:53:34.548Z,17.51
2022-10-23T16:58:34.954Z,17.35
2022-10-23T17:03:34.351Z,17.29
2022-10-23T17:08:36.528Z,17.17
2022-10-23T17:13:35.746Z,17.18
2022-10-23T17:18:39.909Z,17.15
2022-10-23T17:23:38.267Z,17.20
2022-10-23T17:28:38.708Z,17.25
2022-10-23T17:33:39.182Z,17.10
2022-10-23T17:38:37.358Z,17.13
2022-10-23T17:43:40.696Z,17.03
2022-10-23T17:48:40.075Z,16.85
2022-10-23T17:53:42.506Z,16.80
2022-10-23T17:58:42.923Z,16.63
2022-10-23T18:03:42.460Z,16.45
2022-10-23T18:08:42.694Z,16.27
2022-10-23T18:13:42.261Z,16.14
2022-10-23T18:18:41.860Z,16.12
2022-10-23T18:23:42.362Z,16.16
2022-10-23T18:28:42.858Z,15.92
2022-10-23T18:33:43.347Z,18.61
2022-10-23T18:38:42.987Z,17.30
2022-10-23T18:43:44.083Z,17.13
2022-10-23T18:48:42.078Z,18.67
2022-10-23T18:53:42.576Z,21.71
2022-10-23T18:58:42.021Z,22.52
2022-10-23T19:03:41.529Z,22.78
2022-10-23T19:08:40.977Z,22.83
2022-10-23T19:13:43.464Z,23.04
2022-10-23T19:18:42.956Z,23.22
2022-10-23T19:23:42.394Z,20.87
2022-10-23T19:28:49.690Z,19.23
2022-10-23T19:33:45.335Z,17.88
2022-10-23T19:38:44.757Z,17.48
2022-10-23T19:43:45.350Z,17.50
2022-10-23T19:48:47.545Z,17.32
2022-10-23T19:53:46.937Z,17.06
2022-10-23T19:58:46.352Z,16.96
2022-10-23T20:03:47.803Z,17.07
2022-10-23T20:08:48.322Z,17.14
2022-10-23T20:13:48.303Z,17.25
2022-10-23T20:18:48.036Z,17.33
2022-10-23T20:23:53.063Z,17.38
2022-10-23T20:28:48.601Z,17.47
2022-10-23T20:33:47.886Z,17.55
2022-10-23T20:38:49.036Z,17.74
2022-10-23T20:43:50.255Z,17.81
2022-10-23T20:48:52.817Z,17.88
2022-10-23T20:53:52.277Z,17.94
2022-10-23T20:58:51.464Z,17.85
2022-10-23T21:03:52.751Z,17.79
2022-10-23T21:08:53.897Z,17.91
2022-10-23T21:13:55.264Z,17.95
2022-10-23T21:18:56.391Z,18.65
2022-10-23T21:23:57.605Z,18.42
2022-10-23T21:29:17.938Z,18.73
2022-10-23T21:33:59.708Z,19.70
2022-10-23T21:39:02.824Z,18.92
2022-10-23T21:44:01.920Z,18.49
2022-10-23T21:49:04.025Z,18.46
2022-10-23T21:54:03.112Z,19.21
2022-10-23T21:59:04.270Z,19.38
2022-10-23T22:04:05.409Z,19.54
2022-10-23T22:09:06.502Z,19.29
2022-10-23T22:14:07.593Z,18.83
2022-10-23T22:19:08.782Z,18.43
2022-10-23T22:24:10.896Z,17.99
2022-10-23T22:29:14.087Z,17.89
2022-10-23T22:34:25.115Z,18.27
2022-10-23T22:39:11.184Z,17.95
2022-10-23T22:44:13.483Z,17.79
2022-10-23T22:49:15.628Z,17.78
2022-10-23T22:54:12.791Z,17.79
2022-10-23T22:59:14.194Z,17.67
2022-10-23T23:04:36.768Z,17.62
2022-10-23T23:09:18.245Z,17.44
2022-10-23T23:14:20.310Z,17.35
2022-10-23T23:19:17.433Z,17.23
2022-10-23T23:24:18.620Z,17.26
2022-10-23T23:29:19.858Z,17.06
2022-10-23T23:34:22.960Z,16.83
2022-10-23T23:39:22.166Z,16.65
2022-10-23T23:44:24.299Z,16.55
2022-10-23T23:49:23.394Z,16.48
2022-10-23T23:54:24.811Z,16.40
2022-10-23T23:59:26.057Z,16.37
